Aeroporto :
LOGIN :

Iscrizione | Disclaimer

   EN    FR    IT 

 










Sommario :    VFR   VFR Marginale   IFR   IFR Intensivo   IFR Molto Intensivo
Visibilità : 
Base nubi : 
>= 8 km
>= 3000ft
5 / 8 km
1000 / 3000 ft
1500m / 5 km
500 / 1000 ft
800 / 1500m
200 / 500 ft
< 800m
< 200 ft
Simboli :   Temporali  Nebbia  Neve Forte  Precipitazioni Forti  Vento > 20 kt
SIGMETs :   Varie  Temporali  Ghiacco  Turbolenza  Onda orograficha  Ceneri Vulcaniche






- Altitudine del aeroporto : 1411 ft
- Codice IATA : SZG


LOWS - Salzburg

ULTIMO METAR :
  • 131620Z 03009KT 360V060 9999 FEW060 22/08 Q1019 NOSIG

METARs OBSOLETI :
  • 131550Z 04009KT 9999 FEW060 22/10 Q1019 NOSIG
  • 131520Z 02008KT 350V070 9999 FEW060 23/09 Q1019 NOSIG
  • 131450Z 02010KT 350V060 9999 FEW060 23/09 Q1020 NOSIG
  • 131420Z 03009KT 360V060 9999 FEW060 22/09 Q1020 NOSIG
  • 131350Z 02009KT 340V050 9999 FEW060 22/09 Q1020 NOSIG

TAF TAF LOWS
Valido dal 13 a 12 ore il 14 a 12 ore UTC


131115Z 1312/1412 01006KT 9999 FEW060 TX22/1314Z TN11/1404Z
TEMPO 1312/1317 05012KT
BECMG 1317/1319 15005KT CAVOK
BECMG 1407/1409 34005KT 9999 FEW060



MetMap, La meteo Aeronautica in un colpo d'occhio ! - Copyright ORBIFLY Dicembre 2007 - Disclaimer

ORBIFLY MET'MAP TEAM :

Programmazione e sviluppo : Alexandra Zaïnal
Concezione : Baudouin d'Aumeries
Aiuto per la programmazione : Marc-Olivier Méhu
Supporto tecnico e logistico : Manuel Goepfert
Aiuto per la traduzione : Arnaldo La Scala

Contatto : metmap@orbifly.com




FONTI E CREDITI :

   NOAA